sensor_id;sensor_type;location;lat;lon;timestamp;temperature;humidity
18717;DHT22;9487;50.892;6.906;2023-07-31T00:00:20;18.00;1.00
18717;DHT22;9487;50.892;6.906;2023-07-31T00:02:48;18.00;1.00
18717;DHT22;9487;50.892;6.906;2023-07-31T00:05:15;18.00;1.00
18717;DHT22;9487;50.892;6.906;2023-07-31T00:07:42;18.00;1.00
18717;DHT22;9487;50.892;6.906;2023-07-31T00:10:10;18.00;1.00
18717;DHT22;9487;50.892;6.906;2023-07-31T00:12:39;18.00;1.00
18717;DHT22;9487;50.892;6.906;2023-07-31T00:15:07;18.00;1.00
18717;DHT22;9487;50.892;6.906;2023-07-31T00:17:34;18.00;1.00
18717;DHT22;9487;50.892;6.906;2023-07-31T00:20:00;18.00;1.00
18717;DHT22;9487;50.892;6.906;2023-07-31T00:22:27;18.10;1.00
18717;DHT22;9487;50.892;6.906;2023-07-31T00:24:55;18.10;1.00
18717;DHT22;9487;50.892;6.906;2023-07-31T00:27:22;18.10;1.00
18717;DHT22;9487;50.892;6.906;2023-07-31T00:29:50;18.10;1.00
18717;DHT22;9487;50.892;6.906;2023-07-31T00:32:17;18.10;1.00
18717;DHT22;9487;50.892;6.906;2023-07-31T00:34:44;18.10;1.00
18717;DHT22;9487;50.892;6.906;2023-07-31T00:37:11;18.10;1.00
18717;DHT22;9487;50.892;6.906;2023-07-31T00:39:38;18.10;1.00
18717;DHT22;9487;50.892;6.906;2023-07-31T00:42:05;18.10;1.00
18717;DHT22;9487;50.892;6.906;2023-07-31T00:44:32;18.20;1.00
18717;DHT22;9487;50.892;6.906;2023-07-31T00:47:00;18.20;1.00
18717;DHT22;9487;50.892;6.906;2023-07-31T00:49:29;18.10;1.00
18717;DHT22;9487;50.892;6.906;2023-07-31T00:51:56;18.10;1.00
18717;DHT22;9487;50.892;6.906;2023-07-31T00:54:24;18.10;1.00
18717;DHT22;9487;50.892;6.906;2023-07-31T00:56:53;18.10;1.00
18717;DHT22;9487;50.892;6.906;2023-07-31T00:59:22;18.20;1.00
18717;DHT22;9487;50.892;6.906;2023-07-31T01:01:49;18.10;1.00
18717;DHT22;9487;50.892;6.906;2023-07-31T01:04:19;18.10;1.00
18717;DHT22;9487;50.892;6.906;2023-07-31T01:06:52;18.10;1.00
18717;DHT22;9487;50.892;6.906;2023-07-31T01:09:31;18.10;1.00
18717;DHT22;9487;50.892;6.906;2023-07-31T01:12:02;18.10;1.00
18717;DHT22;9487;50.892;6.906;2023-07-31T01:14:31;18.20;1.00
18717;DHT22;9487;50.892;6.906;2023-07-31T01:16:57;18.20;1.00
18717;DHT22;9487;50.892;6.906;2023-07-31T01:19:26;18.20;1.00
18717;DHT22;9487;50.892;6.906;2023-07-31T01:22:12;18.20;99.90
18717;DHT22;9487;50.892;6.906;2023-07-31T01:24:55;18.20;99.90
18717;DHT22;9487;50.892;6.906;2023-07-31T01:27:28;18.20;99.90
18717;DHT22;9487;50.892;6.906;2023-07-31T01:30:03;18.20;99.90
18717;DHT22;9487;50.892;6.906;2023-07-31T01:32:36;18.20;99.90
18717;DHT22;9487;50.892;6.906;2023-07-31T01:35:06;18.20;99.90
18717;DHT22;9487;50.892;6.906;2023-07-31T01:37:33;18.20;99.90
18717;DHT22;9487;50.892;6.906;2023-07-31T01:40:00;18.20;99.90
18717;DHT22;9487;50.892;6.906;2023-07-31T01:42:30;18.20;99.90
18717;DHT22;9487;50.892;6.906;2023-07-31T01:44:57;18.20;99.90
18717;DHT22;9487;50.892;6.906;2023-07-31T01:47:25;18.20;99.90
18717;DHT22;9487;50.892;6.906;2023-07-31T01:49:52;18.20;99.90
18717;DHT22;9487;50.892;6.906;2023-07-31T01:52:19;18.20;99.90
18717;DHT22;9487;50.892;6.906;2023-07-31T01:54:46;18.20;99.90
18717;DHT22;9487;50.892;6.906;2023-07-31T01:57:12;18.30;99.90
18717;DHT22;9487;50.892;6.906;2023-07-31T01:59:42;18.30;99.90
18717;DHT22;9487;50.892;6.906;2023-07-31T02:02:10;18.30;99.90
18717;DHT22;9487;50.892;6.906;2023-07-31T02:04:37;18.30;99.90
18717;DHT22;9487;50.892;6.906;2023-07-31T02:07:05;18.30;99.90
18717;DHT22;9487;50.892;6.906;2023-07-31T02:09:32;18.30;99.90
18717;DHT22;9487;50.892;6.906;2023-07-31T02:12:00;18.40;99.90
18717;DHT22;9487;50.892;6.906;2023-07-31T02:14:27;18.40;10.30
18717;DHT22;9487;50.892;6.906;2023-07-31T02:16:55;18.40;96.80
18717;DHT22;9487;50.892;6.906;2023-07-31T02:19:22;18.40;22.20
18717;DHT22;9487;50.892;6.906;2023-07-31T02:21:49;18.40;7.40
18717;DHT22;9487;50.892;6.906;2023-07-31T02:24:16;18.40;1.00
18717;DHT22;9487;50.892;6.906;2023-07-31T02:26:43;18.50;1.00
18717;DHT22;9487;50.892;6.906;2023-07-31T02:29:10;18.50;1.00
18717;DHT22;9487;50.892;6.906;2023-07-31T02:31:37;18.50;1.00
18717;DHT22;9487;50.892;6.906;2023-07-31T02:34:07;18.50;1.00
18717;DHT22;9487;50.892;6.906;2023-07-31T02:36:34;18.50;1.00
18717;DHT22;9487;50.892;6.906;2023-07-31T02:39:01;18.50;1.00
18717;DHT22;9487;50.892;6.906;2023-07-31T02:41:28;18.50;1.00
18717;DHT22;9487;50.892;6.906;2023-07-31T02:43:55;18.60;1.00
18717;DHT22;9487;50.892;6.906;2023-07-31T02:46:22;18.60;1.00
18717;DHT22;9487;50.892;6.906;2023-07-31T02:48:50;18.60;1.00
18717;DHT22;9487;50.892;6.906;2023-07-31T02:51:18;18.50;1.00
18717;DHT22;9487;50.892;6.906;2023-07-31T02:53:46;18.60;1.00
18717;DHT22;9487;50.892;6.906;2023-07-31T02:56:13;18.60;1.00
18717;DHT22;9487;50.892;6.906;2023-07-31T02:58:41;18.60;1.00
18717;DHT22;9487;50.892;6.906;2023-07-31T03:01:08;18.60;1.00
18717;DHT22;9487;50.892;6.906;2023-07-31T03:03:37;18.60;1.00
18717;DHT22;9487;50.892;6.906;2023-07-31T03:06:04;18.60;1.00
18717;DHT22;9487;50.892;6.906;2023-07-31T03:08:32;18.60;1.00
18717;DHT22;9487;50.892;6.906;2023-07-31T03:10:59;18.60;1.00
18717;DHT22;9487;50.892;6.906;2023-07-31T03:13:25;18.60;1.00
18717;DHT22;9487;50.892;6.906;2023-07-31T03:15:52;18.60;1.00
18717;DHT22;9487;50.892;6.906;2023-07-31T03:18:19;18.60;1.00
18717;DHT22;9487;50.892;6.906;2023-07-31T03:20:47;18.60;1.00
18717;DHT22;9487;50.892;6.906;2023-07-31T03:23:14;18.60;1.00
18717;DHT22;9487;50.892;6.906;2023-07-31T03:25:55;18.70;1.00
18717;DHT22;9487;50.892;6.906;2023-07-31T03:28:23;18.70;1.00
18717;DHT22;9487;50.892;6.906;2023-07-31T03:30:50;18.70;1.00
18717;DHT22;9487;50.892;6.906;2023-07-31T03:33:17;18.70;1.00
18717;DHT22;9487;50.892;6.906;2023-07-31T03:35:44;18.70;1.00
18717;DHT22;9487;50.892;6.906;2023-07-31T03:38:11;18.70;1.00
18717;DHT22;9487;50.892;6.906;2023-07-31T03:40:38;18.80;1.00
18717;DHT22;9487;50.892;6.906;2023-07-31T03:43:07;18.70;1.00
18717;DHT22;9487;50.892;6.906;2023-07-31T03:45:34;18.80;1.00
18717;DHT22;9487;50.892;6.906;2023-07-31T03:48:01;18.70;1.00
18717;DHT22;9487;50.892;6.906;2023-07-31T03:50:27;18.70;1.00
18717;DHT22;9487;50.892;6.906;2023-07-31T03:52:54;18.80;1.00
18717;DHT22;9487;50.892;6.906;2023-07-31T03:55:21;18.80;1.00
18717;DHT22;9487;50.892;6.906;2023-07-31T03:57:48;18.80;1.00
18717;DHT22;9487;50.892;6.906;2023-07-31T04:00:17;18.70;1.00
18717;DHT22;9487;50.892;6.906;2023-07-31T04:02:43;18.80;1.00
18717;DHT22;9487;50.892;6.906;2023-07-31T04:05:10;18.70;1.00
18717;DHT22;9487;50.892;6.906;2023-07-31T04:07:37;18.70;1.00
18717;DHT22;9487;50.892;6.906;2023-07-31T04:10:05;18.70;1.00
18717;DHT22;9487;50.892;6.906;2023-07-31T04:12:32;18.70;1.00
18717;DHT22;9487;50.892;6.906;2023-07-31T04:14:59;18.70;1.00
18717;DHT22;9487;50.892;6.906;2023-07-31T04:17:27;18.80;1.00
18717;DHT22;9487;50.892;6.906;2023-07-31T04:19:54;18.80;1.00
18717;DHT22;9487;50.892;6.906;2023-07-31T04:22:21;18.80;1.00
18717;DHT22;9487;50.892;6.906;2023-07-31T04:24:48;18.80;1.00
18717;DHT22;9487;50.892;6.906;2023-07-31T04:27:14;18.80;1.00
18717;DHT22;9487;50.892;6.906;2023-07-31T04:29:41;18.80;1.00
18717;DHT22;9487;50.892;6.906;2023-07-31T04:32:11;18.80;1.00
18717;DHT22;9487;50.892;6.906;2023-07-31T04:34:39;18.90;1.00
18717;DHT22;9487;50.892;6.906;2023-07-31T04:37:06;18.90;1.00
18717;DHT22;9487;50.892;6.906;2023-07-31T04:39:33;18.90;99.90
18717;DHT22;9487;50.892;6.906;2023-07-31T04:42:00;18.90;99.90
18717;DHT22;9487;50.892;6.906;2023-07-31T04:44:27;18.90;99.90
18717;DHT22;9487;50.892;6.906;2023-07-31T04:46:54;18.90;99.90
18717;DHT22;9487;50.892;6.906;2023-07-31T04:49:22;19.00;99.90
18717;DHT22;9487;50.892;6.906;2023-07-31T04:51:50;19.00;99.90
18717;DHT22;9487;50.892;6.906;2023-07-31T04:54:17;19.00;99.90
18717;DHT22;9487;50.892;6.906;2023-07-31T04:56:43;19.00;99.90
18717;DHT22;9487;50.892;6.906;2023-07-31T04:59:10;19.00;99.90
18717;DHT22;9487;50.892;6.906;2023-07-31T05:01:37;19.10;99.90
18717;DHT22;9487;50.892;6.906;2023-07-31T05:04:04;19.10;99.90
18717;DHT22;9487;50.892;6.906;2023-07-31T05:06:31;19.10;99.90
18717;DHT22;9487;50.892;6.906;2023-07-31T05:09:00;19.10;25.90
18717;DHT22;9487;50.892;6.906;2023-07-31T05:11:27;19.10;27.30
18717;DHT22;9487;50.892;6.906;2023-07-31T05:13:55;19.20;23.40
18717;DHT22;9487;50.892;6.906;2023-07-31T05:16:22;19.20;86.00
18717;DHT22;9487;50.892;6.906;2023-07-31T05:18:49;19.20;29.70
18717;DHT22;9487;50.892;6.906;2023-07-31T05:21:16;19.30;1.00
18717;DHT22;9487;50.892;6.906;2023-07-31T05:23:43;19.30;1.00
18717;DHT22;9487;50.892;6.906;2023-07-31T05:26:13;19.30;1.00
18717;DHT22;9487;50.892;6.906;2023-07-31T05:28:40;19.30;1.00
18717;DHT22;9487;50.892;6.906;2023-07-31T05:31:07;19.30;1.00
18717;DHT22;9487;50.892;6.906;2023-07-31T05:33:34;19.40;1.00
18717;DHT22;9487;50.892;6.906;2023-07-31T05:36:00;19.40;1.00
18717;DHT22;9487;50.892;6.906;2023-07-31T05:38:28;19.40;1.00
18717;DHT22;9487;50.892;6.906;2023-07-31T05:40:55;19.30;1.00
18717;DHT22;9487;50.892;6.906;2023-07-31T05:43:26;19.40;1.00
18717;DHT22;9487;50.892;6.906;2023-07-31T05:45:55;19.30;90.40
18717;DHT22;9487;50.892;6.906;2023-07-31T05:48:22;19.20;99.90
18717;DHT22;9487;50.892;6.906;2023-07-31T05:50:49;19.20;99.90
18717;DHT22;9487;50.892;6.906;2023-07-31T05:53:18;19.20;99.90
18717;DHT22;9487;50.892;6.906;2023-07-31T05:55:44;19.20;99.90
18717;DHT22;9487;50.892;6.906;2023-07-31T05:58:11;19.20;99.90
18717;DHT22;9487;50.892;6.906;2023-07-31T06:00:40;19.20;1.00
18717;DHT22;9487;50.892;6.906;2023-07-31T06:03:09;19.20;99.90
18717;DHT22;9487;50.892;6.906;2023-07-31T06:05:36;19.10;99.90
18717;DHT22;9487;50.892;6.906;2023-07-31T06:08:03;19.30;30.30
18717;DHT22;9487;50.892;6.906;2023-07-31T06:10:30;19.30;8.60
18717;DHT22;9487;50.892;6.906;2023-07-31T06:12:57;19.30;99.90
18717;DHT22;9487;50.892;6.906;2023-07-31T06:15:24;19.30;99.90
18717;DHT22;9487;50.892;6.906;2023-07-31T06:17:52;19.30;99.90
18717;DHT22;9487;50.892;6.906;2023-07-31T06:20:19;19.20;1.00
18717;DHT22;9487;50.892;6.906;2023-07-31T06:22:46;19.20;1.00
18717;DHT22;9487;50.892;6.906;2023-07-31T06:25:13;19.10;1.00
18717;DHT22;9487;50.892;6.906;2023-07-31T06:27:41;19.10;1.00
18717;DHT22;9487;50.892;6.906;2023-07-31T06:30:11;19.10;1.00
18717;DHT22;9487;50.892;6.906;2023-07-31T06:32:39;19.00;1.00
18717;DHT22;9487;50.892;6.906;2023-07-31T06:35:07;18.90;99.90
18717;DHT22;9487;50.892;6.906;2023-07-31T06:37:34;18.80;99.90
18717;DHT22;9487;50.892;6.906;2023-07-31T06:40:01;18.90;1.00
18717;DHT22;9487;50.892;6.906;2023-07-31T06:42:31;18.80;1.00
18717;DHT22;9487;50.892;6.906;2023-07-31T06:44:58;18.80;1.00
18717;DHT22;9487;50.892;6.906;2023-07-31T06:47:25;18.80;1.00
18717;DHT22;9487;50.892;6.906;2023-07-31T06:49:52;18.90;1.00
18717;DHT22;9487;50.892;6.906;2023-07-31T06:52:20;18.90;1.00
18717;DHT22;9487;50.892;6.906;2023-07-31T06:55:01;19.00;1.00
18717;DHT22;9487;50.892;6.906;2023-07-31T06:57:28;19.10;1.00
18717;DHT22;9487;50.892;6.906;2023-07-31T06:59:55;19.10;1.00
18717;DHT22;9487;50.892;6.906;2023-07-31T07:02:22;19.10;1.00
18717;DHT22;9487;50.892;6.906;2023-07-31T07:04:49;19.10;1.00
18717;DHT22;9487;50.892;6.906;2023-07-31T07:07:17;19.20;1.00
18717;DHT22;9487;50.892;6.906;2023-07-31T07:09:45;19.20;1.00
18717;DHT22;9487;50.892;6.906;2023-07-31T07:12:12;19.20;1.00
18717;DHT22;9487;50.892;6.906;2023-07-31T07:14:39;19.20;1.00
18717;DHT22;9487;50.892;6.906;2023-07-31T07:17:06;19.30;1.00
18717;DHT22;9487;50.892;6.906;2023-07-31T07:19:33;19.40;1.00
18717;DHT22;9487;50.892;6.906;2023-07-31T07:22:00;19.40;1.00
18717;DHT22;9487;50.892;6.906;2023-07-31T07:24:27;19.40;1.00
18717;DHT22;9487;50.892;6.906;2023-07-31T07:26:59;19.40;1.00
18717;DHT22;9487;50.892;6.906;2023-07-31T07:29:27;19.50;1.00
18717;DHT22;9487;50.892;6.906;2023-07-31T07:31:54;19.50;1.00
18717;DHT22;9487;50.892;6.906;2023-07-31T07:34:22;19.60;99.90
18717;DHT22;9487;50.892;6.906;2023-07-31T07:36:49;19.60;1.00
18717;DHT22;9487;50.892;6.906;2023-07-31T07:39:16;19.50;99.90
18717;DHT22;9487;50.892;6.906;2023-07-31T07:41:43;19.50;99.90
18717;DHT22;9487;50.892;6.906;2023-07-31T07:44:11;19.40;99.90
18717;DHT22;9487;50.892;6.906;2023-07-31T07:46:38;19.40;99.90
18717;DHT22;9487;50.892;6.906;2023-07-31T07:49:05;19.40;99.90
18717;DHT22;9487;50.892;6.906;2023-07-31T07:51:32;19.30;99.90
18717;DHT22;9487;50.892;6.906;2023-07-31T07:53:59;19.30;99.90
18717;DHT22;9487;50.892;6.906;2023-07-31T07:56:27;19.30;99.90
18717;DHT22;9487;50.892;6.906;2023-07-31T07:58:54;19.20;1.00
18717;DHT22;9487;50.892;6.906;2023-07-31T08:01:22;19.10;1.00
18717;DHT22;9487;50.892;6.906;2023-07-31T08:03:50;19.00;1.00
18717;DHT22;9487;50.892;6.906;2023-07-31T08:06:17;18.90;1.00
18717;DHT22;9487;50.892;6.906;2023-07-31T08:08:44;18.90;1.00
18717;DHT22;9487;50.892;6.906;2023-07-31T08:11:11;18.90;1.00
18717;DHT22;9487;50.892;6.906;2023-07-31T08:13:38;18.90;1.00
18717;DHT22;9487;50.892;6.906;2023-07-31T08:16:05;18.90;1.00
18717;DHT22;9487;50.892;6.906;2023-07-31T08:18:33;18.90;1.00
18717;DHT22;9487;50.892;6.906;2023-07-31T08:21:01;18.80;1.00
18717;DHT22;9487;50.892;6.906;2023-07-31T08:23:28;18.80;1.00
18717;DHT22;9487;50.892;6.906;2023-07-31T08:25:55;18.70;1.00
18717;DHT22;9487;50.892;6.906;2023-07-31T08:28:22;18.70;1.00
18717;DHT22;9487;50.892;6.906;2023-07-31T08:30:50;18.80;1.00
18717;DHT22;9487;50.892;6.906;2023-07-31T08:33:17;18.80;1.00
18717;DHT22;9487;50.892;6.906;2023-07-31T08:35:45;18.80;1.00
18717;DHT22;9487;50.892;6.906;2023-07-31T08:38:12;18.80;1.00
18717;DHT22;9487;50.892;6.906;2023-07-31T08:40:39;18.80;1.00
18717;DHT22;9487;50.892;6.906;2023-07-31T08:43:08;18.90;28.60
18717;DHT22;9487;50.892;6.906;2023-07-31T08:45:35;18.90;99.90
18717;DHT22;9487;50.892;6.906;2023-07-31T08:48:03;19.00;99.90
18717;DHT22;9487;50.892;6.906;2023-07-31T08:50:30;19.00;88.00
18717;DHT22;9487;50.892;6.906;2023-07-31T08:52:58;19.10;1.00
18717;DHT22;9487;50.892;6.906;2023-07-31T08:55:26;19.10;1.00
18717;DHT22;9487;50.892;6.906;2023-07-31T08:57:54;19.20;1.00
18717;DHT22;9487;50.892;6.906;2023-07-31T09:00:23;19.10;1.00
18717;DHT22;9487;50.892;6.906;2023-07-31T09:02:55;19.20;1.00
18717;DHT22;9487;50.892;6.906;2023-07-31T09:05:24;19.20;1.00
18717;DHT22;9487;50.892;6.906;2023-07-31T09:07:53;19.30;1.00
18717;DHT22;9487;50.892;6.906;2023-07-31T09:10:23;19.30;1.00
18717;DHT22;9487;50.892;6.906;2023-07-31T09:12:52;19.30;1.00
18717;DHT22;9487;50.892;6.906;2023-07-31T09:15:19;19.30;1.00
18717;DHT22;9487;50.892;6.906;2023-07-31T09:17:46;19.30;1.00
18717;DHT22;9487;50.892;6.906;2023-07-31T09:20:15;19.30;1.00
18717;DHT22;9487;50.892;6.906;2023-07-31T09:22:43;19.20;1.00
18717;DHT22;9487;50.892;6.906;2023-07-31T09:25:17;19.10;1.00
18717;DHT22;9487;50.892;6.906;2023-07-31T09:27:50;19.00;1.00
18717;DHT22;9487;50.892;6.906;2023-07-31T09:30:18;19.00;1.00
18717;DHT22;9487;50.892;6.906;2023-07-31T09:32:46;19.00;1.00
18717;DHT22;9487;50.892;6.906;2023-07-31T09:35:19;19.10;1.00
18717;DHT22;9487;50.892;6.906;2023-07-31T09:37:50;19.20;1.00
18717;DHT22;9487;50.892;6.906;2023-07-31T09:40:31;19.30;1.00
18717;DHT22;9487;50.892;6.906;2023-07-31T09:43:00;19.40;1.00
18717;DHT22;9487;50.892;6.906;2023-07-31T09:45:28;19.40;99.90
18717;DHT22;9487;50.892;6.906;2023-07-31T09:47:56;19.40;1.00
18717;DHT22;9487;50.892;6.906;2023-07-31T09:50:27;19.50;1.00
18717;DHT22;9487;50.892;6.906;2023-07-31T09:52:55;19.60;99.90
18717;DHT22;9487;50.892;6.906;2023-07-31T09:55:22;19.60;99.90
18717;DHT22;9487;50.892;6.906;2023-07-31T09:57:49;19.80;99.90
18717;DHT22;9487;50.892;6.906;2023-07-31T10:00:18;19.90;99.90
18717;DHT22;9487;50.892;6.906;2023-07-31T10:02:48;20.00;1.00
18717;DHT22;9487;50.892;6.906;2023-07-31T10:05:17;20.10;99.90
18717;DHT22;9487;50.892;6.906;2023-07-31T10:07:53;20.30;1.00
18717;DHT22;9487;50.892;6.906;2023-07-31T10:10:21;20.40;99.90
18717;DHT22;9487;50.892;6.906;2023-07-31T10:12:49;20.50;99.90
18717;DHT22;9487;50.892;6.906;2023-07-31T10:15:18;20.60;99.90
18717;DHT22;9487;50.892;6.906;2023-07-31T10:17:47;20.60;1.00
18717;DHT22;9487;50.892;6.906;2023-07-31T10:20:14;20.50;1.00
18717;DHT22;9487;50.892;6.906;2023-07-31T10:22:43;20.60;1.00
18717;DHT22;9487;50.892;6.906;2023-07-31T10:25:11;20.60;1.00
18717;DHT22;9487;50.892;6.906;2023-07-31T10:27:39;20.50;1.00
18717;DHT22;9487;50.892;6.906;2023-07-31T10:30:11;20.50;1.00
18717;DHT22;9487;50.892;6.906;2023-07-31T10:32:41;20.50;99.90
18717;DHT22;9487;50.892;6.906;2023-07-31T10:35:10;20.50;1.00
18717;DHT22;9487;50.892;6.906;2023-07-31T10:37:39;20.60;1.00
18717;DHT22;9487;50.892;6.906;2023-07-31T10:40:10;20.60;1.00
18717;DHT22;9487;50.892;6.906;2023-07-31T10:42:46;20.70;1.00
18717;DHT22;9487;50.892;6.906;2023-07-31T10:45:23;20.80;99.90
18717;DHT22;9487;50.892;6.906;2023-07-31T10:47:58;20.80;99.90
18717;DHT22;9487;50.892;6.906;2023-07-31T10:50:26;20.80;1.00
18717;DHT22;9487;50.892;6.906;2023-07-31T10:52:54;20.70;99.90
18717;DHT22;9487;50.892;6.906;2023-07-31T10:55:29;20.70;99.90
18717;DHT22;9487;50.892;6.906;2023-07-31T10:57:57;20.70;99.90
18717;DHT22;9487;50.892;6.906;2023-07-31T11:00:26;20.60;99.90
18717;DHT22;9487;50.892;6.906;2023-07-31T11:03:13;20.60;99.90
18717;DHT22;9487;50.892;6.906;2023-07-31T11:05:51;20.70;99.90
18717;DHT22;9487;50.892;6.906;2023-07-31T11:08:21;20.70;99.90
18717;DHT22;9487;50.892;6.906;2023-07-31T11:10:50;20.80;99.90
18717;DHT22;9487;50.892;6.906;2023-07-31T11:13:18;20.70;1.00
18717;DHT22;9487;50.892;6.906;2023-07-31T11:15:45;20.60;1.00
18717;DHT22;9487;50.892;6.906;2023-07-31T11:18:13;20.40;99.70
18717;DHT22;9487;50.892;6.906;2023-07-31T11:20:40;20.30;99.90
18717;DHT22;9487;50.892;6.906;2023-07-31T11:23:08;20.20;1.00
18717;DHT22;9487;50.892;6.906;2023-07-31T11:25:36;20.20;99.90
18717;DHT22;9487;50.892;6.906;2023-07-31T11:28:05;20.30;99.90
18717;DHT22;9487;50.892;6.906;2023-07-31T11:30:32;20.60;99.90
18717;DHT22;9487;50.892;6.906;2023-07-31T11:33:01;20.70;1.00
18717;DHT22;9487;50.892;6.906;2023-07-31T11:35:31;20.80;99.90
18717;DHT22;9487;50.892;6.906;2023-07-31T11:37:59;21.00;1.00
18717;DHT22;9487;50.892;6.906;2023-07-31T11:40:26;21.10;99.90
18717;DHT22;9487;50.892;6.906;2023-07-31T11:42:56;21.30;66.40
18717;DHT22;9487;50.892;6.906;2023-07-31T11:45:25;21.50;1.00
18717;DHT22;9487;50.892;6.906;2023-07-31T11:47:54;21.70;1.00
18717;DHT22;9487;50.892;6.906;2023-07-31T11:50:21;21.80;1.00
18717;DHT22;9487;50.892;6.906;2023-07-31T11:52:54;21.90;1.00
18717;DHT22;9487;50.892;6.906;2023-07-31T11:55:22;21.80;99.90
18717;DHT22;9487;50.892;6.906;2023-07-31T11:57:50;21.70;1.00
18717;DHT22;9487;50.892;6.906;2023-07-31T12:00:18;21.70;1.00
18717;DHT22;9487;50.892;6.906;2023-07-31T12:02:45;21.70;28.90
18717;DHT22;9487;50.892;6.906;2023-07-31T12:05:12;21.70;1.00
18717;DHT22;9487;50.892;6.906;2023-07-31T12:07:47;21.60;1.00
18717;DHT22;9487;50.892;6.906;2023-07-31T12:10:26;21.60;27.40
18717;DHT22;9487;50.892;6.906;2023-07-31T12:12:58;21.50;99.90
18717;DHT22;9487;50.892;6.906;2023-07-31T12:15:36;21.50;99.90
18717;DHT22;9487;50.892;6.906;2023-07-31T12:18:05;21.50;1.00
18717;DHT22;9487;50.892;6.906;2023-07-31T12:20:32;21.40;99.90
18717;DHT22;9487;50.892;6.906;2023-07-31T12:23:00;21.30;99.90
18717;DHT22;9487;50.892;6.906;2023-07-31T12:25:32;21.30;99.90
18717;DHT22;9487;50.892;6.906;2023-07-31T12:28:05;21.30;99.90
18717;DHT22;9487;50.892;6.906;2023-07-31T12:30:37;21.20;99.90
18717;DHT22;9487;50.892;6.906;2023-07-31T12:33:05;21.20;99.90
18717;DHT22;9487;50.892;6.906;2023-07-31T12:35:40;21.20;99.90
18717;DHT22;9487;50.892;6.906;2023-07-31T12:38:07;21.20;99.90
18717;DHT22;9487;50.892;6.906;2023-07-31T12:40:38;21.10;99.90
18717;DHT22;9487;50.892;6.906;2023-07-31T12:43:05;21.10;99.90
18717;DHT22;9487;50.892;6.906;2023-07-31T12:45:32;21.20;1.00
18717;DHT22;9487;50.892;6.906;2023-07-31T12:47:59;21.20;99.90
18717;DHT22;9487;50.892;6.906;2023-07-31T12:50:27;21.20;99.90
18717;DHT22;9487;50.892;6.906;2023-07-31T12:52:56;21.20;99.90
18717;DHT22;9487;50.892;6.906;2023-07-31T12:55:23;21.20;99.90
18717;DHT22;9487;50.892;6.906;2023-07-31T12:57:52;21.10;99.90
18717;DHT22;9487;50.892;6.906;2023-07-31T13:00:19;21.10;99.90
18717;DHT22;9487;50.892;6.906;2023-07-31T13:02:45;21.10;99.90
18717;DHT22;9487;50.892;6.906;2023-07-31T13:05:12;21.10;99.90
18717;DHT22;9487;50.892;6.906;2023-07-31T13:07:40;21.20;99.90
18717;DHT22;9487;50.892;6.906;2023-07-31T13:10:07;21.20;99.90
18717;DHT22;9487;50.892;6.906;2023-07-31T13:12:34;21.30;99.90
18717;DHT22;9487;50.892;6.906;2023-07-31T13:15:03;21.30;99.90
18717;DHT22;9487;50.892;6.906;2023-07-31T13:17:30;21.30;99.90
18717;DHT22;9487;50.892;6.906;2023-07-31T13:19:58;21.30;99.90
18717;DHT22;9487;50.892;6.906;2023-07-31T13:22:25;21.30;99.90
18717;DHT22;9487;50.892;6.906;2023-07-31T13:24:52;21.30;99.90
18717;DHT22;9487;50.892;6.906;2023-07-31T13:27:19;21.30;13.00
18717;DHT22;9487;50.892;6.906;2023-07-31T13:29:47;21.40;99.90
18717;DHT22;9487;50.892;6.906;2023-07-31T13:32:16;21.50;45.30
18717;DHT22;9487;50.892;6.906;2023-07-31T13:34:43;21.60;1.00
18717;DHT22;9487;50.892;6.906;2023-07-31T13:37:10;21.60;1.00
18717;DHT22;9487;50.892;6.906;2023-07-31T13:39:37;21.80;1.00
18717;DHT22;9487;50.892;6.906;2023-07-31T13:42:05;21.90;1.00
18717;DHT22;9487;50.892;6.906;2023-07-31T13:44:33;21.90;1.00
18717;DHT22;9487;50.892;6.906;2023-07-31T13:47:00;21.90;1.00
18717;DHT22;9487;50.892;6.906;2023-07-31T13:49:29;21.90;1.00
18717;DHT22;9487;50.892;6.906;2023-07-31T13:51:56;22.00;1.00
18717;DHT22;9487;50.892;6.906;2023-07-31T13:54:23;22.10;99.90
18717;DHT22;9487;50.892;6.906;2023-07-31T13:56:50;22.20;99.90
18717;DHT22;9487;50.892;6.906;2023-07-31T13:59:16;22.50;1.00
18717;DHT22;9487;50.892;6.906;2023-07-31T14:01:44;22.80;1.00
18717;DHT22;9487;50.892;6.906;2023-07-31T14:04:11;22.90;99.90
18717;DHT22;9487;50.892;6.906;2023-07-31T14:06:40;23.00;1.00
18717;DHT22;9487;50.892;6.906;2023-07-31T14:09:07;23.00;1.00
18717;DHT22;9487;50.892;6.906;2023-07-31T14:11:33;22.90;99.90
18717;DHT22;9487;50.892;6.906;2023-07-31T14:14:00;22.70;1.00
18717;DHT22;9487;50.892;6.906;2023-07-31T14:16:28;22.40;1.00
18717;DHT22;9487;50.892;6.906;2023-07-31T14:18:55;22.20;1.00
18717;DHT22;9487;50.892;6.906;2023-07-31T14:21:24;22.10;1.00
18717;DHT22;9487;50.892;6.906;2023-07-31T14:23:52;22.00;1.00
18717;DHT22;9487;50.892;6.906;2023-07-31T14:26:19;21.90;1.00
18717;DHT22;9487;50.892;6.906;2023-07-31T14:28:46;21.80;96.20
18717;DHT22;9487;50.892;6.906;2023-07-31T14:31:13;21.80;13.90
18717;DHT22;9487;50.892;6.906;2023-07-31T14:33:40;21.70;62.70
18717;DHT22;9487;50.892;6.906;2023-07-31T14:36:07;21.80;99.90
18717;DHT22;9487;50.892;6.906;2023-07-31T14:38:34;21.80;99.90
18717;DHT22;9487;50.892;6.906;2023-07-31T14:41:02;21.80;99.90
18717;DHT22;9487;50.892;6.906;2023-07-31T14:43:29;21.80;99.90
18717;DHT22;9487;50.892;6.906;2023-07-31T14:45:55;21.80;1.00
18717;DHT22;9487;50.892;6.906;2023-07-31T14:48:25;21.80;99.90
18717;DHT22;9487;50.892;6.906;2023-07-31T14:50:52;21.80;53.90
18717;DHT22;9487;50.892;6.906;2023-07-31T14:53:19;21.80;28.70
18717;DHT22;9487;50.892;6.906;2023-07-31T14:55:46;21.70;1.00
18717;DHT22;9487;50.892;6.906;2023-07-31T14:58:14;21.60;55.00
18717;DHT22;9487;50.892;6.906;2023-07-31T15:00:42;21.60;99.90
18717;DHT22;9487;50.892;6.906;2023-07-31T15:03:09;21.60;99.90
18717;DHT22;9487;50.892;6.906;2023-07-31T15:05:36;21.50;99.90
18717;DHT22;9487;50.892;6.906;2023-07-31T15:08:03;21.50;99.90
18717;DHT22;9487;50.892;6.906;2023-07-31T15:10:30;21.40;99.90
18717;DHT22;9487;50.892;6.906;2023-07-31T15:12:58;21.40;99.90
18717;DHT22;9487;50.892;6.906;2023-07-31T15:15:26;21.40;99.90
18717;DHT22;9487;50.892;6.906;2023-07-31T15:17:53;21.40;99.90
18717;DHT22;9487;50.892;6.906;2023-07-31T15:20:20;21.40;99.90
18717;DHT22;9487;50.892;6.906;2023-07-31T15:22:47;21.40;53.50
18717;DHT22;9487;50.892;6.906;2023-07-31T15:25:15;21.30;99.90
18717;DHT22;9487;50.892;6.906;2023-07-31T15:27:42;21.30;99.90
18717;DHT22;9487;50.892;6.906;2023-07-31T15:30:09;21.30;1.00
18717;DHT22;9487;50.892;6.906;2023-07-31T15:32:38;21.30;47.70
18717;DHT22;9487;50.892;6.906;2023-07-31T15:35:06;21.30;99.90
18717;DHT22;9487;50.892;6.906;2023-07-31T15:37:33;21.30;99.90
18717;DHT22;9487;50.892;6.906;2023-07-31T15:40:00;21.20;99.90
18717;DHT22;9487;50.892;6.906;2023-07-31T15:42:27;21.20;99.90
18717;DHT22;9487;50.892;6.906;2023-07-31T15:44:54;21.20;1.00
18717;DHT22;9487;50.892;6.906;2023-07-31T15:47:21;21.20;1.00
18717;DHT22;9487;50.892;6.906;2023-07-31T15:49:49;21.20;99.90
18717;DHT22;9487;50.892;6.906;2023-07-31T15:52:16;21.30;99.90
18717;DHT22;9487;50.892;6.906;2023-07-31T15:54:43;21.30;1.00
18717;DHT22;9487;50.892;6.906;2023-07-31T15:57:09;21.20;1.00
18717;DHT22;9487;50.892;6.906;2023-07-31T15:59:36;21.10;99.90